createdAt,value
2018-12-23T00:01:00.120Z,47.85
2018-12-23T00:06:55.142Z,37.5
2018-12-23T00:12:50.110Z,37.74
2018-12-23T00:18:45.125Z,35.52
2018-12-23T00:24:40.111Z,33.78
2018-12-23T00:30:35.114Z,29.34
2018-12-23T00:36:30.131Z,29.83
2018-12-23T00:42:25.153Z,28.81
2018-12-23T00:48:20.189Z,22.96
2018-12-23T00:54:15.152Z,23.9
2018-12-23T01:00:10.156Z,25.07
2018-12-23T01:06:05.125Z,28.94
2018-12-23T01:12:00.169Z,25.2
2018-12-23T01:17:55.161Z,30.54
2018-12-23T01:23:50.197Z,32.29
2018-12-23T01:29:45.169Z,20.94
2018-12-23T01:35:40.175Z,23.12
2018-12-23T01:41:35.149Z,27.01
2018-12-23T01:47:30.167Z,34.49
2018-12-23T01:53:25.170Z,25.96
2018-12-23T01:59:20.199Z,24.03
2018-12-23T02:05:15.178Z,29.05
2018-12-23T02:11:10.165Z,24.95
2018-12-23T02:17:05.234Z,27.81
2018-12-23T02:23:00.174Z,32.35
2018-12-23T02:28:55.184Z,44.61
2018-12-23T02:34:50.180Z,30.03
2018-12-23T02:40:45.199Z,23.09
2018-12-23T02:46:40.210Z,21.27
2018-12-23T02:52:35.223Z,25.25
2018-12-23T02:58:30.278Z,25.56
2018-12-23T03:04:25.235Z,18.75
2018-12-23T03:10:20.276Z,35.09
2018-12-23T03:16:15.217Z,34.08
2018-12-23T03:22:10.242Z,38.25
2018-12-23T03:28:05.269Z,36.43
2018-12-23T03:34:00.251Z,28.63
2018-12-23T03:39:55.220Z,28.35
2018-12-23T03:45:50.271Z,31.21
2018-12-23T03:51:45.235Z,35.02
2018-12-23T03:57:40.245Z,38.17
2018-12-23T04:03:35.248Z,34.74
2018-12-23T04:09:30.285Z,33.52
2018-12-23T04:15:25.267Z,36
2018-12-23T04:21:20.229Z,30.97
2018-12-23T04:27:15.258Z,31.27
2018-12-23T04:33:10.259Z,38.23
2018-12-23T04:39:05.372Z,33.89
2018-12-23T04:45:00.274Z,35.51
2018-12-23T04:50:55.283Z,39.87
2018-12-23T04:56:50.333Z,37.62
2018-12-23T05:02:45.268Z,36.07
2018-12-23T05:08:40.321Z,41.64
2018-12-23T05:14:35.298Z,49.99
2018-12-23T05:20:30.278Z,60.74
2018-12-23T05:26:25.298Z,50.5
2018-12-23T05:32:20.302Z,51.98
2018-12-23T05:38:15.336Z,55.89
2018-12-23T05:44:10.295Z,57.02
2018-12-23T05:50:05.338Z,58.23
2018-12-23T05:56:00.314Z,61.08
2018-12-23T06:01:55.303Z,49.29
2018-12-23T06:07:50.312Z,43.37
2018-12-23T06:13:45.342Z,41.79
2018-12-23T06:19:40.314Z,40.83
2018-12-23T06:25:35.317Z,42.87
2018-12-23T06:31:30.342Z,44.79
2018-12-23T06:37:25.344Z,35.14
2018-12-23T06:43:20.335Z,45.58
2018-12-23T06:49:15.370Z,43.97
2018-12-23T06:55:10.341Z,36.76
2018-12-23T07:01:05.399Z,39.7
2018-12-23T07:07:00.353Z,34.57
2018-12-23T07:12:55.369Z,41.29
2018-12-23T07:18:50.357Z,43.59
2018-12-23T07:24:45.363Z,46.54
2018-12-23T07:30:40.353Z,38.39
2018-12-23T07:36:35.375Z,32.62
2018-12-23T07:42:30.383Z,35.36
2018-12-23T07:48:25.381Z,36.37
2018-12-23T07:54:20.382Z,36.6
2018-12-23T08:00:15.414Z,33.18
2018-12-23T08:06:10.378Z,31.81
2018-12-23T08:12:05.413Z,33.38
2018-12-23T08:18:00.379Z,31.13
2018-12-23T08:23:55.423Z,28.23
2018-12-23T08:29:50.417Z,31.63
2018-12-23T08:35:45.411Z,31.79
2018-12-23T08:41:40.426Z,28.25
2018-12-23T08:47:35.422Z,44.68
2018-12-23T08:53:30.437Z,33.22
2018-12-23T08:59:25.450Z,32.22
2018-12-23T09:05:20.477Z,29.82
2018-12-23T09:11:15.426Z,52.46
2018-12-23T09:26:19.501Z,49.7
2018-12-23T09:32:14.486Z,47.5
2018-12-23T09:38:09.539Z,41.81
2018-12-23T09:44:04.508Z,46.6
2018-12-23T09:49:59.537Z,37.28
2018-12-23T09:55:54.516Z,52.52
2018-12-23T10:01:49.522Z,55.77
2018-12-23T10:07:44.516Z,44.2
2018-12-23T10:13:39.510Z,38.5
2018-12-23T10:19:34.567Z,40.42
2018-12-23T10:25:29.553Z,41
2018-12-23T10:31:24.528Z,60.65
2018-12-23T10:37:19.519Z,51.91
2018-12-23T10:43:14.549Z,45.21
2018-12-23T10:49:09.538Z,40.82
2018-12-23T10:55:04.575Z,36.52
2018-12-23T11:00:59.554Z,44.2
2018-12-23T11:06:54.550Z,43.75
2018-12-23T11:12:49.621Z,38.95
2018-12-23T11:18:44.576Z,38.11
2018-12-23T11:24:39.561Z,36.36
2018-12-23T11:30:34.596Z,37.46
2018-12-23T11:36:29.588Z,59.34
2018-12-23T11:42:24.581Z,51.82
2018-12-23T11:48:19.591Z,48.02
2018-12-23T11:54:14.583Z,53.7
2018-12-23T12:00:09.585Z,44.53
2018-12-23T12:06:04.596Z,47.06
2018-12-23T12:11:59.607Z,42.99
2018-12-23T12:17:54.599Z,38.78
2018-12-23T12:23:49.613Z,46.3
2018-12-23T12:29:44.606Z,44.76
2018-12-23T12:35:39.640Z,42.45
2018-12-23T12:41:34.617Z,43.18
2018-12-23T12:47:29.616Z,17.42
2018-12-23T12:53:24.621Z,22.13
2018-12-23T12:59:19.617Z,32.23
2018-12-23T13:05:14.627Z,37.38
2018-12-23T13:11:09.629Z,45.38
2018-12-23T13:17:04.647Z,43.01
2018-12-23T13:22:59.628Z,42.67
2018-12-23T13:28:54.668Z,43.69
2018-12-23T13:34:49.688Z,51.12
2018-12-23T13:40:44.678Z,45.43
2018-12-23T13:46:39.671Z,42.68
2018-12-23T13:52:34.667Z,49.19
2018-12-23T13:58:29.657Z,41.19
2018-12-23T14:04:24.699Z,45.89
2018-12-23T14:10:19.687Z,55.42
2018-12-23T14:16:14.720Z,48.77
2018-12-23T14:22:09.725Z,44.5
2018-12-23T14:28:05.634Z,46.11
2018-12-23T14:33:59.689Z,40.07
2018-12-23T14:39:54.682Z,41.24
2018-12-23T14:45:49.720Z,37.48
2018-12-23T14:51:44.732Z,31.25
2018-12-23T14:57:39.733Z,31.49
2018-12-23T15:03:34.699Z,30.94
2018-12-23T15:09:34.120Z,27.78
2018-12-23T15:15:24.767Z,26.79
2018-12-23T15:21:19.724Z,23.36
2018-12-23T15:27:14.717Z,26.28
2018-12-23T15:33:09.713Z,27.68
2018-12-23T15:39:04.773Z,32.41
2018-12-23T15:44:59.739Z,29.48
2018-12-23T15:50:54.762Z,32.08
2018-12-23T15:56:49.741Z,33.93
2018-12-23T16:02:44.817Z,37.33
2018-12-23T16:08:39.926Z,41.88
2018-12-23T16:14:34.746Z,31.97
2018-12-23T16:20:29.748Z,30.58
2018-12-23T16:26:24.802Z,30.44
2018-12-23T16:32:19.770Z,27.16
2018-12-23T16:38:14.765Z,26.36
2018-12-23T16:44:09.773Z,38.22
2018-12-23T16:50:04.781Z,29.94
2018-12-23T16:55:59.787Z,30.58
2018-12-23T17:01:54.782Z,27.57
2018-12-23T17:07:49.777Z,23.95
2018-12-23T17:13:44.771Z,19.52
2018-12-23T17:19:39.802Z,20.68
2018-12-23T17:25:34.782Z,16.34
2018-12-23T17:31:29.813Z,17.06
2018-12-23T17:37:24.815Z,20.84
2018-12-23T17:43:19.868Z,18.97
2018-12-23T17:49:14.817Z,23.92
2018-12-23T17:55:09.813Z,27.23
2018-12-23T18:01:04.819Z,18.31
2018-12-23T18:07:03.625Z,20.57
2018-12-23T18:12:54.874Z,23.01
2018-12-23T18:18:49.833Z,23.34
2018-12-23T18:24:44.903Z,24.72
2018-12-23T18:30:39.862Z,26.55
2018-12-23T18:36:34.839Z,30.03
2018-12-23T18:42:29.840Z,31.41
2018-12-23T18:48:24.851Z,33.59
2018-12-23T18:54:19.850Z,31.45
2018-12-23T19:00:14.889Z,23.12
2018-12-23T19:06:09.856Z,20.45
2018-12-23T19:12:04.856Z,26.3
2018-12-23T19:17:59.878Z,25.81
2018-12-23T19:23:54.873Z,30.03
2018-12-23T19:29:49.870Z,20.43
2018-12-23T19:35:44.877Z,23.8
2018-12-23T19:41:39.999Z,23.3
2018-12-23T19:47:34.873Z,24.3
2018-12-23T19:53:29.892Z,22.85
2018-12-23T19:59:24.894Z,28.77
2018-12-23T20:05:19.903Z,27.64
2018-12-23T20:11:14.916Z,37.34
2018-12-23T20:17:09.919Z,33.77
2018-12-23T20:23:04.899Z,32.65
2018-12-23T20:28:59.932Z,34.51
2018-12-23T20:34:54.919Z,38.83
2018-12-23T20:40:49.914Z,40.78
2018-12-23T20:46:44.917Z,36.46
2018-12-23T20:52:39.899Z,36.37
2018-12-23T20:58:34.911Z,35.36
2018-12-23T21:04:29.961Z,34.77
2018-12-23T21:10:24.942Z,34.97
2018-12-23T21:16:19.926Z,32.66
2018-12-23T21:22:14.965Z,40.66
2018-12-23T21:28:09.964Z,32.69
2018-12-23T21:34:04.938Z,32.77
2018-12-23T21:39:59.929Z,33.78
2018-12-23T21:45:54.955Z,33.95
2018-12-23T21:51:49.933Z,33.5
2018-12-23T21:57:44.953Z,38.29
2018-12-23T22:03:39.949Z,33.49
2018-12-23T22:09:34.960Z,30.87
2018-12-23T22:15:29.958Z,40.63
2018-12-23T22:21:24.972Z,34.47
2018-12-23T22:27:19.985Z,31.29
2018-12-23T22:33:14.996Z,32.43
2018-12-23T22:39:09.965Z,34.41
2018-12-23T22:45:05.028Z,39.09
2018-12-23T22:50:59.976Z,30.41
2018-12-23T22:56:54.995Z,37.44
2018-12-23T23:02:50.022Z,42.91
2018-12-23T23:08:45.002Z,35.63
2018-12-23T23:14:39.990Z,35.02
2018-12-23T23:20:34.986Z,27.62
2018-12-23T23:26:30.045Z,23.72
2018-12-23T23:32:25.064Z,29.16
2018-12-23T23:38:20.008Z,26.7
2018-12-23T23:44:15.010Z,23.98
2018-12-23T23:50:10.124Z,34.18
2018-12-23T23:56:05.038Z,30.93
